createdAt,value
2023-05-19T00:00:15.495Z,69.00
2023-05-19T00:02:45.603Z,69.30
2023-05-19T00:05:18.641Z,69.40
2023-05-19T00:07:48.987Z,70.00
2023-05-19T00:10:20.848Z,69.60
2023-05-19T00:12:50.932Z,70.30
2023-05-19T00:15:22.756Z,70.80
2023-05-19T00:17:52.398Z,71.00
2023-05-19T00:20:20.815Z,70.90
2023-05-19T00:22:49.127Z,71.90
2023-05-19T00:25:18.827Z,71.50
2023-05-19T00:27:47.178Z,71.80
2023-05-19T00:30:16.415Z,72.00
2023-05-19T00:32:44.765Z,71.60
2023-05-19T00:35:13.493Z,71.40
2023-05-19T00:37:41.854Z,71.60
2023-05-19T00:40:12.162Z,72.10
2023-05-19T00:42:42.813Z,72.30
2023-05-19T00:45:11.744Z,72.30
2023-05-19T00:47:40.505Z,72.90
2023-05-19T00:50:09.749Z,72.90
2023-05-19T00:52:38.063Z,72.80
2023-05-19T00:55:09.072Z,72.90
2023-05-19T00:57:37.791Z,73.00
2023-05-19T01:00:09.818Z,72.60
2023-05-19T01:02:40.040Z,73.10
2023-05-19T01:05:09.949Z,72.60
2023-05-19T01:07:39.344Z,72.80
2023-05-19T01:10:08.671Z,72.70
2023-05-19T01:12:37.372Z,73.10
2023-05-19T01:15:09.983Z,73.70
2023-05-19T01:17:49.499Z,74.10
2023-05-19T01:20:25.923Z,73.90
2023-05-19T01:23:20.359Z,74.10
2023-05-19T01:26:25.972Z,74.40
2023-05-19T01:29:38.031Z,74.10
2023-05-19T01:32:09.149Z,74.00
2023-05-19T01:34:44.747Z,74.70
2023-05-19T01:37:16.396Z,74.70
2023-05-19T01:39:46.378Z,75.00
2023-05-19T01:42:16.732Z,75.30
2023-05-19T01:44:45.632Z,75.50
2023-05-19T01:47:15.952Z,75.80
2023-05-19T01:49:44.427Z,75.70
2023-05-19T01:52:12.786Z,76.20
2023-05-19T01:54:41.110Z,76.20
2023-05-19T01:57:26.164Z,76.30
2023-05-19T02:00:07.807Z,76.40
2023-05-19T02:02:56.700Z,76.60
2023-05-19T02:05:32.904Z,76.90
2023-05-19T02:08:09.716Z,77.00
2023-05-19T02:10:43.533Z,77.00
2023-05-19T02:13:15.144Z,77.20
2023-05-19T02:15:45.628Z,77.20
2023-05-19T02:18:19.271Z,77.60
2023-05-19T02:20:48.598Z,77.40
2023-05-19T02:23:16.998Z,77.70
2023-05-19T02:25:45.281Z,77.90
2023-05-19T02:28:13.623Z,77.80
2023-05-19T02:30:41.826Z,77.80
2023-05-19T02:33:11.509Z,77.90
2023-05-19T02:35:41.194Z,77.90
2023-05-19T02:38:10.027Z,78.00
2023-05-19T02:40:38.247Z,78.10
2023-05-19T02:43:06.872Z,78.10
2023-05-19T02:45:35.139Z,78.10
2023-05-19T02:48:03.522Z,77.90
2023-05-19T02:50:32.071Z,78.10
2023-05-19T02:53:02.580Z,78.10
2023-05-19T02:55:30.854Z,78.00
2023-05-19T02:57:59.145Z,78.20
2023-05-19T03:00:27.459Z,78.50
2023-05-19T03:02:55.826Z,78.50
2023-05-19T03:05:24.189Z,78.60
2023-05-19T03:07:52.395Z,78.70
2023-05-19T03:10:22.047Z,78.70
2023-05-19T03:12:50.994Z,78.60
2023-05-19T03:15:20.913Z,78.60
2023-05-19T03:17:49.212Z,78.40
2023-05-19T03:20:17.962Z,78.30
2023-05-19T03:22:46.190Z,78.90
2023-05-19T03:25:14.567Z,79.10
2023-05-19T03:27:44.494Z,79.00
2023-05-19T03:30:14.629Z,78.90
2023-05-19T03:32:43.052Z,78.80
2023-05-19T03:35:11.669Z,78.80
2023-05-19T03:37:39.981Z,78.90
2023-05-19T03:40:10.620Z,78.80
2023-05-19T03:42:38.966Z,79.00
2023-05-19T03:45:10.109Z,78.90
2023-05-19T03:47:38.248Z,78.70
2023-05-19T03:50:08.096Z,78.90
2023-05-19T03:52:36.425Z,79.00
2023-05-19T03:55:04.940Z,79.10
2023-05-19T03:57:33.666Z,78.80
2023-05-19T04:00:02.065Z,79.00
2023-05-19T04:02:31.833Z,79.10
2023-05-19T04:05:00.125Z,79.30
2023-05-19T04:07:28.369Z,79.30
2023-05-19T04:09:56.604Z,79.50
2023-05-19T04:12:25.172Z,79.40
2023-05-19T04:14:53.547Z,79.50
2023-05-19T04:17:23.714Z,79.60
2023-05-19T04:19:53.354Z,79.60
2023-05-19T04:22:21.841Z,79.50
2023-05-19T04:24:50.683Z,79.50
2023-05-19T04:27:19.087Z,79.60
2023-05-19T04:29:48.476Z,79.50
2023-05-19T04:32:18.541Z,79.50
2023-05-19T04:34:46.882Z,79.30
2023-05-19T04:37:17.374Z,79.30
2023-05-19T04:39:46.524Z,79.80
2023-05-19T04:42:14.834Z,79.80
2023-05-19T04:44:43.490Z,79.90
2023-05-19T04:47:12.152Z,79.90
2023-05-19T04:49:40.528Z,79.80
2023-05-19T04:52:11.027Z,79.40
2023-05-19T04:54:41.920Z,79.50
2023-05-19T04:57:10.501Z,79.50
2023-05-19T04:59:38.993Z,79.30
2023-05-19T05:02:07.892Z,79.60
2023-05-19T05:04:36.655Z,79.60
2023-05-19T05:07:04.978Z,79.30
2023-05-19T05:09:33.363Z,79.10
2023-05-19T05:12:04.778Z,78.90
2023-05-19T05:14:33.930Z,78.80
2023-05-19T05:17:03.260Z,78.80
2023-05-19T05:19:32.271Z,78.90
2023-05-19T05:22:01.365Z,78.90
2023-05-19T05:24:30.475Z,78.60
2023-05-19T05:26:59.578Z,78.40
2023-05-19T05:29:29.253Z,78.60
2023-05-19T05:31:57.900Z,78.10
2023-05-19T05:34:26.655Z,78.00
2023-05-19T05:36:55.174Z,78.10
2023-05-19T05:39:23.443Z,78.10
2023-05-19T05:41:52.231Z,77.90
2023-05-19T05:44:20.533Z,77.70
2023-05-19T05:46:51.573Z,77.50
2023-05-19T05:49:20.736Z,77.20
2023-05-19T05:52:04.402Z,77.30
2023-05-19T05:54:34.586Z,77.00
2023-05-19T05:57:04.332Z,76.90
2023-05-19T05:59:33.938Z,76.80
2023-05-19T06:02:03.923Z,76.20
2023-05-19T06:04:32.293Z,76.30
2023-05-19T06:07:01.800Z,75.50
2023-05-19T06:09:30.922Z,75.10
2023-05-19T06:12:00.617Z,75.10
2023-05-19T06:14:29.002Z,75.00
2023-05-19T06:16:57.436Z,74.80
2023-05-19T06:19:27.172Z,73.90
2023-05-19T06:21:55.526Z,73.90
2023-05-19T06:24:23.931Z,73.40
2023-05-19T06:26:52.264Z,74.00
2023-05-19T06:29:20.663Z,73.20
2023-05-19T06:31:49.119Z,73.30
2023-05-19T06:34:17.893Z,72.90
2023-05-19T06:36:47.747Z,73.60
2023-05-19T06:39:16.330Z,73.90
2023-05-19T06:41:44.594Z,73.60
2023-05-19T06:44:14.557Z,73.70
2023-05-19T06:46:44.388Z,73.10
2023-05-19T06:49:12.854Z,73.70
2023-05-19T06:51:41.404Z,73.40
2023-05-19T06:54:13.023Z,73.20
2023-05-19T06:56:41.365Z,72.50
2023-05-19T06:59:09.660Z,72.30
2023-05-19T07:01:38.044Z,72.00
2023-05-19T07:04:06.780Z,72.20
2023-05-19T07:06:35.404Z,71.10
2023-05-19T07:09:05.479Z,71.40
2023-05-19T07:11:35.486Z,71.50
2023-05-19T07:14:03.869Z,71.30
2023-05-19T07:16:32.256Z,71.10
2023-05-19T07:19:00.669Z,70.60
2023-05-19T07:21:29.011Z,70.80
2023-05-19T07:23:57.291Z,70.80
2023-05-19T07:26:26.416Z,68.80
2023-05-19T07:28:56.795Z,69.10
2023-05-19T07:31:25.237Z,68.50
2023-05-19T07:33:54.618Z,69.10
2023-05-19T07:36:23.548Z,69.10
2023-05-19T07:38:59.279Z,68.50
2023-05-19T07:41:27.661Z,67.40
2023-05-19T07:43:57.404Z,67.20
2023-05-19T07:46:26.006Z,67.60
2023-05-19T07:48:54.527Z,67.00
2023-05-19T07:51:22.864Z,67.70
2023-05-19T07:53:51.455Z,67.40
2023-05-19T07:56:20.044Z,66.40
2023-05-19T07:58:48.460Z,67.60
2023-05-19T08:01:18.250Z,67.10
2023-05-19T08:03:46.598Z,67.10
2023-05-19T08:06:14.948Z,67.50
2023-05-19T08:08:46.369Z,66.20
2023-05-19T08:11:14.671Z,65.50
2023-05-19T08:13:43.016Z,64.90
2023-05-19T08:16:11.264Z,65.10
2023-05-19T08:18:40.860Z,64.90
2023-05-19T08:21:09.334Z,64.60
2023-05-19T08:23:38.764Z,63.90
2023-05-19T08:26:07.130Z,64.40
2023-05-19T08:28:35.734Z,63.00
2023-05-19T08:31:03.981Z,62.10
2023-05-19T08:33:32.337Z,62.70
2023-05-19T08:36:02.138Z,63.00
2023-05-19T08:38:31.105Z,62.20
2023-05-19T08:40:59.425Z,61.00
2023-05-19T08:43:27.884Z,60.60
2023-05-19T08:45:56.708Z,62.00
2023-05-19T08:48:25.075Z,62.10
2023-05-19T08:51:05.936Z,61.60
2023-05-19T08:53:43.966Z,60.90
2023-05-19T08:56:16.111Z,61.20
2023-05-19T08:58:45.972Z,60.30
2023-05-19T09:01:16.905Z,60.10
2023-05-19T09:03:46.282Z,59.60
2023-05-19T09:06:22.398Z,59.20
2023-05-19T09:08:50.875Z,57.50
2023-05-19T09:11:26.615Z,57.80
2023-05-19T09:13:55.263Z,59.20
2023-05-19T09:16:23.771Z,59.40
2023-05-19T09:19:01.015Z,58.30
2023-05-19T09:21:32.037Z,56.50
2023-05-19T09:24:05.654Z,57.40
2023-05-19T09:26:39.720Z,55.70
2023-05-19T09:29:14.675Z,55.10
2023-05-19T09:31:51.289Z,55.50
2023-05-19T09:34:20.058Z,55.50
2023-05-19T09:36:51.976Z,55.50
2023-05-19T09:39:22.353Z,55.60
2023-05-19T09:41:53.601Z,55.20
2023-05-19T09:44:29.040Z,54.20
2023-05-19T09:46:58.289Z,54.40
2023-05-19T09:49:29.743Z,54.40
2023-05-19T09:52:01.484Z,52.60
2023-05-19T09:54:32.433Z,49.40
2023-05-19T09:57:03.608Z,52.20
2023-05-19T09:59:33.859Z,53.00
2023-05-19T10:02:03.381Z,52.20
2023-05-19T10:04:32.770Z,52.60
2023-05-19T10:07:05.763Z,53.00
2023-05-19T10:09:35.542Z,50.70
2023-05-19T10:12:05.076Z,49.10
2023-05-19T10:14:33.422Z,49.80
2023-05-19T10:17:01.879Z,49.40
2023-05-19T10:19:30.695Z,48.70
2023-05-19T10:21:59.105Z,49.50
2023-05-19T10:24:28.848Z,49.70
2023-05-19T10:27:02.601Z,48.80
2023-05-19T10:29:34.673Z,48.20
2023-05-19T10:32:09.871Z,47.80
2023-05-19T10:35:13.980Z,47.70
2023-05-19T10:37:47.856Z,46.70
2023-05-19T10:40:28.660Z,48.00
2023-05-19T10:43:16.978Z,48.30
2023-05-19T10:45:50.282Z,49.40
2023-05-19T10:48:20.776Z,49.30
2023-05-19T10:50:49.754Z,47.00
2023-05-19T10:53:21.016Z,49.20
2023-05-19T10:55:53.817Z,46.80
2023-05-19T10:58:50.891Z,47.90
2023-05-19T11:01:20.839Z,47.00
2023-05-19T11:03:52.311Z,47.80
2023-05-19T11:06:28.395Z,46.30
2023-05-19T11:09:00.943Z,47.80
2023-05-19T11:11:48.257Z,47.60
2023-05-19T11:14:19.260Z,49.70
2023-05-19T11:16:52.574Z,48.30
2023-05-19T11:19:26.990Z,48.60
2023-05-19T11:21:56.263Z,45.40
2023-05-19T11:24:38.357Z,46.50
2023-05-19T11:27:26.948Z,45.80
2023-05-19T11:29:57.145Z,46.20
2023-05-19T11:32:29.773Z,45.20
2023-05-19T11:34:58.890Z,46.30
2023-05-19T11:37:28.739Z,47.10
2023-05-19T11:39:57.149Z,47.40
2023-05-19T11:42:26.829Z,48.60
2023-05-19T11:44:58.263Z,46.30
2023-05-19T11:47:27.446Z,47.10
2023-05-19T11:49:57.245Z,47.60
2023-05-19T11:52:27.485Z,46.20
2023-05-19T11:54:56.880Z,46.90
2023-05-19T11:57:26.563Z,46.90
2023-05-19T11:59:56.786Z,46.80
2023-05-19T12:02:27.405Z,45.60
2023-05-19T12:04:55.812Z,47.10
2023-05-19T12:07:26.153Z,47.10
2023-05-19T12:09:56.449Z,46.80
2023-05-19T12:12:26.548Z,47.60
2023-05-19T12:14:54.908Z,46.60
2023-05-19T12:17:24.444Z,46.60
2023-05-19T12:19:52.937Z,47.50
2023-05-19T12:22:23.531Z,47.00
2023-05-19T12:24:52.753Z,47.30
2023-05-19T12:27:24.533Z,46.20
2023-05-19T12:29:56.069Z,45.40
2023-05-19T12:32:26.459Z,47.00
2023-05-19T12:34:57.154Z,46.40
2023-05-19T12:37:30.118Z,46.70
2023-05-19T12:39:59.176Z,46.30
2023-05-19T12:42:31.332Z,47.80
2023-05-19T12:45:03.615Z,46.20
2023-05-19T12:47:34.867Z,47.60
2023-05-19T12:50:04.834Z,47.40
2023-05-19T12:52:42.402Z,47.30
2023-05-19T12:55:12.403Z,46.50
2023-05-19T12:57:43.034Z,47.00
2023-05-19T13:00:17.564Z,46.60
2023-05-19T13:03:01.753Z,46.90
2023-05-19T13:05:33.637Z,48.10
2023-05-19T13:08:03.936Z,48.70
2023-05-19T13:10:33.335Z,46.70
2023-05-19T13:13:02.415Z,46.90
2023-05-19T13:15:36.400Z,46.40
2023-05-19T13:18:08.645Z,46.20
2023-05-19T13:20:37.897Z,46.60
2023-05-19T13:23:06.859Z,46.60
2023-05-19T13:25:35.816Z,47.40
2023-05-19T13:28:05.386Z,47.90
2023-05-19T13:30:37.920Z,47.30
2023-05-19T13:33:07.036Z,48.20
2023-05-19T13:35:38.301Z,47.80
2023-05-19T13:38:08.202Z,47.50
2023-05-19T13:40:39.531Z,45.30
2023-05-19T13:43:08.832Z,46.10
2023-05-19T13:45:39.209Z,46.40
2023-05-19T13:48:08.537Z,47.40
2023-05-19T13:50:37.014Z,46.10
2023-05-19T13:53:05.565Z,45.50
2023-05-19T13:55:34.069Z,45.70
2023-05-19T13:58:03.428Z,46.60
2023-05-19T14:00:32.756Z,45.40
2023-05-19T14:03:02.768Z,47.20
2023-05-19T14:05:31.351Z,47.20
2023-05-19T14:08:03.609Z,46.40
2023-05-19T14:10:32.121Z,47.00
2023-05-19T14:15:34.417Z,47.70
2023-05-19T14:18:05.042Z,47.50
2023-05-19T14:20:35.688Z,47.80
2023-05-19T14:23:04.395Z,48.20
2023-05-19T14:25:32.699Z,44.30
2023-05-19T14:28:01.220Z,47.00
2023-05-19T14:30:30.040Z,47.30
2023-05-19T14:32:58.581Z,46.80
2023-05-19T14:35:28.833Z,45.50
2023-05-19T14:37:57.054Z,46.90
2023-05-19T14:40:25.388Z,45.90
2023-05-19T14:42:53.703Z,45.80
2023-05-19T14:45:22.088Z,44.10
2023-05-19T14:47:50.451Z,46.20
2023-05-19T14:50:18.724Z,46.10
2023-05-19T14:52:48.368Z,44.00
2023-05-19T14:55:16.773Z,46.10
2023-05-19T14:57:44.990Z,47.40
2023-05-19T15:00:14.932Z,47.30
2023-05-19T15:02:43.380Z,46.90
2023-05-19T15:05:12.399Z,46.70
2023-05-19T15:07:41.924Z,46.90
2023-05-19T15:10:12.138Z,47.50
2023-05-19T15:12:40.501Z,44.20
2023-05-19T15:15:10.593Z,44.90
2023-05-19T15:17:39.056Z,45.70
2023-05-19T15:20:08.952Z,46.40
2023-05-19T15:22:37.803Z,45.10
2023-05-19T15:25:11.619Z,43.80
2023-05-19T15:27:39.990Z,46.00
2023-05-19T15:30:11.909Z,46.40
2023-05-19T15:32:40.295Z,46.00
2023-05-19T15:35:09.964Z,46.70
2023-05-19T15:37:38.361Z,45.30
2023-05-19T15:40:11.596Z,44.10
2023-05-19T15:42:39.886Z,45.00
2023-05-19T15:45:10.533Z,46.40
2023-05-19T15:47:38.859Z,45.80
2023-05-19T15:50:08.918Z,45.60
2023-05-19T15:52:37.223Z,46.50
2023-05-19T15:55:08.653Z,46.90
2023-05-19T15:57:38.350Z,46.30
2023-05-19T16:00:08.620Z,46.60
2023-05-19T16:02:37.377Z,46.50
2023-05-19T16:05:06.496Z,45.00
2023-05-19T16:07:34.813Z,45.10
2023-05-19T16:10:03.054Z,46.20
2023-05-19T16:12:31.604Z,47.30
2023-05-19T16:15:08.866Z,47.20
2023-05-19T16:17:37.228Z,46.60
2023-05-19T16:20:07.108Z,46.50
2023-05-19T16:22:35.442Z,46.10
2023-05-19T16:25:03.780Z,47.00
2023-05-19T16:27:32.134Z,47.60
2023-05-19T16:30:02.612Z,45.80
2023-05-19T16:32:31.001Z,45.60
2023-05-19T16:34:59.324Z,46.00
2023-05-19T16:37:27.843Z,45.30
2023-05-19T16:39:56.196Z,46.60
2023-05-19T16:42:24.664Z,45.40
2023-05-19T16:44:53.012Z,46.30
2023-05-19T16:47:22.744Z,45.50
2023-05-19T16:49:51.275Z,47.20
2023-05-19T16:52:20.111Z,46.70
2023-05-19T16:54:48.493Z,46.50
2023-05-19T16:57:16.832Z,46.20
2023-05-19T16:59:45.165Z,45.60
2023-05-19T17:02:13.593Z,46.00
2023-05-19T17:04:43.302Z,44.50
2023-05-19T17:07:16.171Z,45.70
2023-05-19T17:09:44.684Z,46.10
2023-05-19T17:12:13.394Z,46.00
2023-05-19T17:14:42.939Z,45.90
2023-05-19T17:17:11.471Z,46.10
2023-05-19T17:19:39.921Z,47.20
2023-05-19T17:22:09.622Z,47.00
2023-05-19T17:24:37.972Z,46.00
2023-05-19T17:27:06.712Z,46.70
2023-05-19T17:29:35.078Z,46.90
2023-05-19T17:32:06.052Z,46.70
2023-05-19T17:34:34.450Z,46.20
2023-05-19T17:37:02.806Z,46.80
2023-05-19T17:39:32.550Z,47.30
2023-05-19T17:42:01.131Z,48.30
2023-05-19T17:44:29.533Z,48.00
2023-05-19T17:46:58.218Z,47.30
2023-05-19T17:49:26.637Z,46.80
2023-05-19T17:51:55.743Z,47.80
2023-05-19T17:54:26.261Z,47.40
2023-05-19T17:57:03.283Z,47.70
2023-05-19T17:59:32.661Z,48.60
2023-05-19T18:02:01.755Z,48.50
2023-05-19T18:04:31.374Z,49.50
2023-05-19T18:07:03.591Z,49.50
2023-05-19T18:09:33.927Z,49.10
2023-05-19T18:12:05.306Z,48.70
2023-05-19T18:14:33.672Z,49.00
2023-05-19T18:17:02.337Z,48.40
2023-05-19T18:19:30.727Z,47.50
2023-05-19T18:21:59.172Z,48.40
2023-05-19T18:24:27.650Z,49.30
2023-05-19T18:26:56.012Z,49.80
2023-05-19T18:29:25.687Z,49.70
2023-05-19T18:31:57.041Z,49.90
2023-05-19T18:34:25.330Z,50.50
2023-05-19T18:36:53.707Z,49.70
2023-05-19T18:39:22.045Z,49.40
2023-05-19T18:41:50.841Z,49.50
2023-05-19T18:44:19.157Z,50.00
2023-05-19T18:46:48.863Z,50.00
2023-05-19T18:49:17.237Z,50.40
2023-05-19T18:51:48.440Z,50.30
2023-05-19T18:54:16.737Z,50.40
2023-05-19T18:56:45.084Z,50.10
2023-05-19T18:59:13.520Z,50.90
2023-05-19T19:01:42.901Z,50.70
2023-05-19T19:04:14.781Z,49.40
2023-05-19T19:06:44.035Z,51.10
2023-05-19T19:09:12.539Z,50.60
2023-05-19T19:11:41.030Z,50.80
2023-05-19T19:14:10.302Z,50.20
2023-05-19T19:16:38.910Z,50.90
2023-05-19T19:19:07.680Z,51.60
2023-05-19T19:21:37.570Z,50.90
2023-05-19T19:24:07.068Z,51.90
2023-05-19T19:26:35.360Z,52.30
2023-05-19T19:29:03.833Z,51.80
2023-05-19T19:31:33.330Z,52.30
2023-05-19T19:34:05.462Z,51.60
2023-05-19T19:36:33.839Z,52.10
2023-05-19T19:39:03.675Z,52.40
2023-05-19T19:41:33.385Z,52.40
2023-05-19T19:44:01.862Z,51.90
2023-05-19T19:46:30.163Z,52.70
2023-05-19T19:49:00.380Z,52.50
2023-05-19T19:51:28.947Z,53.30
2023-05-19T19:53:57.375Z,52.80
2023-05-19T19:56:27.685Z,53.60
2023-05-19T19:58:59.061Z,54.00
2023-05-19T20:01:28.217Z,53.10
2023-05-19T20:03:56.924Z,54.20
2023-05-19T20:06:25.602Z,53.50
2023-05-19T20:08:53.938Z,53.50
2023-05-19T20:11:24.269Z,54.20
2023-05-19T20:13:54.496Z,54.10
2023-05-19T20:16:24.172Z,55.60
2023-05-19T20:18:52.686Z,54.10
2023-05-19T20:21:21.037Z,54.10
2023-05-19T20:23:50.465Z,54.70
2023-05-19T20:26:18.981Z,55.20
2023-05-19T20:28:47.435Z,54.90
2023-05-19T20:31:17.290Z,56.50
2023-05-19T20:33:45.639Z,55.70
2023-05-19T20:36:14.013Z,56.60
2023-05-19T20:38:42.393Z,56.20
2023-05-19T20:41:10.876Z,56.20
2023-05-19T20:43:39.260Z,56.20
2023-05-19T20:46:07.739Z,56.40
2023-05-19T20:48:37.467Z,55.70
2023-05-19T20:51:06.069Z,55.70
2023-05-19T20:53:37.274Z,55.60
2023-05-19T20:56:07.716Z,55.80
2023-05-19T20:58:36.107Z,56.50
2023-05-19T21:01:04.647Z,56.30
2023-05-19T21:03:33.343Z,56.70
2023-05-19T21:06:03.236Z,57.40
2023-05-19T21:08:31.534Z,56.90
2023-05-19T21:11:00.577Z,57.40
2023-05-19T21:13:29.159Z,57.30
2023-05-19T21:15:58.156Z,57.40
2023-05-19T21:18:26.540Z,57.70
2023-05-19T21:20:54.910Z,57.70
2023-05-19T21:23:24.595Z,58.50
2023-05-19T21:25:52.881Z,58.90
2023-05-19T21:28:21.331Z,58.80
2023-05-19T21:30:50.098Z,58.30
2023-05-19T21:33:18.525Z,58.50
2023-05-19T21:35:47.438Z,59.40
2023-05-19T21:38:23.933Z,58.60
2023-05-19T21:40:53.879Z,58.60
2023-05-19T21:43:22.906Z,59.30
2023-05-19T21:45:51.220Z,59.10
2023-05-19T21:48:19.689Z,57.80
2023-05-19T21:50:53.390Z,58.70
2023-05-19T21:53:21.887Z,58.70
2023-05-19T21:55:50.263Z,58.70
2023-05-19T21:58:19.968Z,59.20
2023-05-19T22:00:50.903Z,59.20
2023-05-19T22:03:19.419Z,59.10
2023-05-19T22:05:50.446Z,58.80
2023-05-19T22:08:19.458Z,59.30
2023-05-19T22:10:51.431Z,59.60
2023-05-19T22:13:21.789Z,59.70
2023-05-19T22:15:50.200Z,60.60
2023-05-19T22:18:18.566Z,60.20
2023-05-19T22:20:46.866Z,60.60
2023-05-19T22:23:15.192Z,60.70
2023-05-19T22:25:43.536Z,59.80
2023-05-19T22:28:11.892Z,60.80
2023-05-19T22:30:42.215Z,60.30
2023-05-19T22:33:11.334Z,59.90
2023-05-19T22:35:39.785Z,60.60
2023-05-19T22:38:10.283Z,61.30
2023-05-19T22:40:39.634Z,61.30
2023-05-19T22:43:07.976Z,61.10
2023-05-19T22:45:36.960Z,61.10
2023-05-19T22:48:07.620Z,61.00
2023-05-19T22:50:35.988Z,61.30
2023-05-19T22:53:04.292Z,61.70
2023-05-19T22:55:32.766Z,61.80
2023-05-19T22:58:01.259Z,61.40
2023-05-19T23:00:29.666Z,61.30
2023-05-19T23:02:58.426Z,61.50
2023-05-19T23:05:28.185Z,62.10
2023-05-19T23:07:56.506Z,61.40
2023-05-19T23:10:24.885Z,62.00
2023-05-19T23:12:53.755Z,62.00
2023-05-19T23:15:22.099Z,61.80
2023-05-19T23:17:50.494Z,61.60
2023-05-19T23:20:19.002Z,62.30
2023-05-19T23:22:48.673Z,62.30
2023-05-19T23:25:17.092Z,63.00
2023-05-19T23:27:46.525Z,62.30
2023-05-19T23:30:14.854Z,62.60
2023-05-19T23:32:43.286Z,63.00
2023-05-19T23:35:13.743Z,62.90
2023-05-19T23:37:42.133Z,62.90
2023-05-19T23:40:12.849Z,62.70
2023-05-19T23:42:41.170Z,62.50
2023-05-19T23:45:10.585Z,62.60
2023-05-19T23:47:39.015Z,63.00
2023-05-19T23:50:08.319Z,63.10
2023-05-19T23:52:36.677Z,63.30
2023-05-19T23:55:05.879Z,62.60
2023-05-19T23:57:35.616Z,63.40
